Time;durP1;ratioP1;P1;durP2;ratioP2;P2;SDS_P1;SDS_P2;PMS_P1;PMS_P2;Temp;Humidity;BMP_temperature;BMP_pressure;BME280_temperature;BME280_humidity;BME280_pressure;Samples;Min_cycle;Max_cycle;Signal;HPM_P1;HPM_P2
2023/01/31 00:00:14;;;;;;;0.10;0.10;;;;;;;;;;1764619;27;20264;-64
2023/01/31 00:01:07;;;;;;;0.10;0.10;;;;;;;;;;1764941;27;20634;-63
2023/01/31 00:01:58;;;;;;;0.00;0.00;;;;;;;;;;1765277;27;20211;-63
2023/01/31 00:02:50;;;;;;;0.10;0.10;;;;;;;;;;1765739;27;20655;-63
2023/01/31 00:03:42;;;;;;;0.10;0.10;;;;;;;;;;1765375;27;20208;-63
2023/01/31 00:04:34;;;;;;;0.00;0.00;;;;;;;;;;1766616;27;20200;-63
2023/01/31 00:05:25;;;;;;;0.25;0.25;;;;;;;;;;1764199;27;20208;-62
2023/01/31 00:06:18;;;;;;;0.00;0.00;;;;;;;;;;1766771;27;20272;-61
2023/01/31 00:07:09;;;;;;;0.10;0.10;;;;;;;;;;1766252;27;20255;-63
2023/01/31 00:08:01;;;;;;;0.10;0.10;;;;;;;;;;1766067;27;20212;-62
2023/01/31 00:08:53;;;;;;;0.08;0.08;;;;;;;;;;1766519;27;20290;-64
2023/01/31 00:09:45;;;;;;;0.10;0.10;;;;;;;;;;1766282;27;20509;-63
2023/01/31 00:10:36;;;;;;;0.10;0.10;;;;;;;;;;1764446;27;20236;-63
2023/01/31 00:11:29;;;;;;;0.20;0.20;;;;;;;;;;1766108;27;20196;-64
2023/01/31 00:12:20;;;;;;;0.10;0.10;;;;;;;;;;1766135;27;20272;-63
2023/01/31 00:13:12;;;;;;;0.13;0.13;;;;;;;;;;1766236;28;20220;-63
2023/01/31 00:14:04;;;;;;;0.17;0.17;;;;;;;;;;1766553;27;20248;-64
2023/01/31 00:14:57;;;;;;;0.10;0.10;;;;;;;;;;1766126;28;20208;-64
2023/01/31 00:15:48;;;;;;;0.15;0.15;;;;;;;;;;1764042;27;20228;-63
2023/01/31 00:16:40;;;;;;;0.10;0.10;;;;;;;;;;1766136;28;20314;-63
2023/01/31 00:17:31;;;;;;;0.00;0.00;;;;;;;;;;1766462;27;20666;-64
2023/01/31 00:18:23;;;;;;;0.13;0.13;;;;;;;;;;1765826;27;20328;-63
2023/01/31 00:19:14;;;;;;;0.13;0.13;;;;;;;;;;1766772;28;20211;-65
2023/01/31 00:20:07;;;;;;;0.10;0.10;;;;;;;;;;1765889;28;20208;-64
2023/01/31 00:20:58;;;;;;;0.10;0.10;;;;;;;;;;1764602;27;20660;-63
2023/01/31 00:21:50;;;;;;;0.20;0.20;;;;;;;;;;1765708;28;20200;-64
2023/01/31 00:22:41;;;;;;;0.20;0.20;;;;;;;;;;1766588;27;20318;-64
2023/01/31 00:23:33;;;;;;;0.10;0.10;;;;;;;;;;1766029;28;20256;-63
2023/01/31 00:24:24;;;;;;;0.00;0.00;;;;;;;;;;1766340;27;20695;-63
2023/01/31 00:25:16;;;;;;;0.10;0.10;;;;;;;;;;1764564;27;20576;-63
2023/01/31 00:26:08;;;;;;;0.43;0.43;;;;;;;;;;1766190;28;20363;-63
2023/01/31 00:27:00;;;;;;;0.20;0.20;;;;;;;;;;1766142;28;20200;-63
2023/01/31 00:27:51;;;;;;;0.10;0.10;;;;;;;;;;1766090;28;20766;-63
2023/01/31 00:28:44;;;;;;;0.20;0.20;;;;;;;;;;1766133;27;20621;-63
2023/01/31 00:29:35;;;;;;;0.13;0.13;;;;;;;;;;1766556;27;20200;-63
2023/01/31 00:30:28;;;;;;;0.20;0.20;;;;;;;;;;1763950;27;20200;-64
2023/01/31 00:31:20;;;;;;;0.10;0.10;;;;;;;;;;1766573;27;20204;-62
2023/01/31 00:32:12;;;;;;;0.10;0.10;;;;;;;;;;1766361;27;20631;-63
2023/01/31 00:33:03;;;;;;;0.10;0.10;;;;;;;;;;1766127;27;20228;-64
2023/01/31 00:33:56;;;;;;;0.00;0.00;;;;;;;;;;1766476;28;20204;-64
2023/01/31 00:34:47;;;;;;;0.10;0.10;;;;;;;;;;1766149;28;20639;-63
2023/01/31 00:35:40;;;;;;;0.05;0.05;;;;;;;;;;1764310;27;20639;-63
2023/01/31 00:36:32;;;;;;;0.10;0.10;;;;;;;;;;1765958;28;20895;-63
2023/01/31 00:37:24;;;;;;;0.10;0.10;;;;;;;;;;1766406;28;20207;-63
2023/01/31 00:38:15;;;;;;;0.20;0.20;;;;;;;;;;1765992;28;20268;-63
2023/01/31 00:39:08;;;;;;;0.10;0.10;;;;;;;;;;1766376;28;20200;-64
2023/01/31 00:39:59;;;;;;;0.20;0.20;;;;;;;;;;1766047;28;20619;-63
2023/01/31 00:40:54;;;;;;;0.10;0.10;;;;;;;;;;1764271;27;20276;-65
2023/01/31 00:41:45;;;;;;;0.10;0.10;;;;;;;;;;1765935;27;20205;-64
2023/01/31 00:42:37;;;;;;;0.20;0.20;;;;;;;;;;1766078;28;20203;-64
2023/01/31 00:43:28;;;;;;;0.38;0.38;;;;;;;;;;1766200;27;20196;-64
2023/01/31 00:44:20;;;;;;;0.20;0.20;;;;;;;;;;1766287;28;20204;-64
2023/01/31 00:45:11;;;;;;;0.10;0.10;;;;;;;;;;1764965;27;20205;-66
2023/01/31 00:46:05;;;;;;;0.10;0.10;;;;;;;;;;1765386;27;20261;-63
2023/01/31 00:46:56;;;;;;;0.10;0.10;;;;;;;;;;1765989;27;20208;-63
2023/01/31 00:47:48;;;;;;;0.13;0.13;;;;;;;;;;1766326;28;20659;-64
2023/01/31 00:48:39;;;;;;;0.20;0.20;;;;;;;;;;1765901;27;20208;-64
2023/01/31 00:49:31;;;;;;;0.10;0.10;;;;;;;;;;1766420;28;20509;-64
2023/01/31 00:50:22;;;;;;;0.17;0.17;;;;;;;;;;1764002;27;20563;-64
2023/01/31 00:51:14;;;;;;;0.13;0.13;;;;;;;;;;1766629;28;20774;-64
2023/01/31 00:52:05;;;;;;;0.13;0.13;;;;;;;;;;1765795;28;20339;-65
2023/01/31 00:52:57;;;;;;;0.20;0.20;;;;;;;;;;1766316;27;20371;-64
2023/01/31 00:53:49;;;;;;;0.10;0.10;;;;;;;;;;1766459;27;20711;-64
2023/01/31 00:54:41;;;;;;;0.00;0.00;;;;;;;;;;1767847;27;20238;-65
2023/01/31 00:55:32;;;;;;;0.10;0.10;;;;;;;;;;1765489;27;20237;-64
2023/01/31 00:56:25;;;;;;;0.20;0.20;;;;;;;;;;1767512;27;20199;-64
2023/01/31 00:57:16;;;;;;;0.10;0.10;;;;;;;;;;1766845;27;20578;-64
2023/01/31 00:58:08;;;;;;;0.20;0.20;;;;;;;;;;1767334;27;20211;-65
2023/01/31 00:58:59;;;;;;;0.20;0.20;;;;;;;;;;1767601;27;20212;-64
2023/01/31 00:59:51;;;;;;;0.10;0.10;;;;;;;;;;1767655;27;20710;-63
2023/01/31 01:00:42;;;;;;;0.30;0.30;;;;;;;;;;1762223;27;20235;-64
2023/01/31 01:01:36;;;;;;;0.10;0.10;;;;;;;;;;1766978;27;20253;-62
2023/01/31 01:02:27;;;;;;;0.00;0.00;;;;;;;;;;1767743;27;20204;-63
2023/01/31 01:03:19;;;;;;;0.20;0.20;;;;;;;;;;1767632;27;20239;-64
2023/01/31 01:04:10;;;;;;;0.10;0.10;;;;;;;;;;1765294;27;20264;-63
2023/01/31 01:05:02;;;;;;;0.08;0.08;;;;;;;;;;1767391;27;20234;-63
2023/01/31 01:05:53;;;;;;;0.20;0.20;;;;;;;;;;1765483;27;20232;-63
2023/01/31 01:06:46;;;;;;;0.20;0.20;;;;;;;;;;1767367;27;20204;-63
2023/01/31 01:07:37;;;;;;;0.17;0.17;;;;;;;;;;1767432;27;20215;-63
2023/01/31 01:08:29;;;;;;;0.10;0.10;;;;;;;;;;1767142;27;20623;-62
2023/01/31 01:09:21;;;;;;;0.10;0.10;;;;;;;;;;1767550;27;20631;-62
2023/01/31 01:10:13;;;;;;;0.20;0.20;;;;;;;;;;1765607;27;20272;-66
2023/01/31 01:11:05;;;;;;;0.10;0.10;;;;;;;;;;1767604;27;20307;-63
2023/01/31 01:11:57;;;;;;;0.20;0.20;;;;;;;;;;1766974;27;20200;-63
2023/01/31 01:12:48;;;;;;;0.10;0.10;;;;;;;;;;1767501;27;20236;-63
2023/01/31 01:13:40;;;;;;;0.10;0.10;;;;;;;;;;1766976;27;20224;-64
2023/01/31 01:14:31;;;;;;;0.10;0.10;;;;;;;;;;1767791;27;20208;-62
2023/01/31 01:15:23;;;;;;;0.10;0.10;;;;;;;;;;1765287;27;20200;-62
2023/01/31 01:16:15;;;;;;;0.10;0.10;;;;;;;;;;1767589;27;20636;-63
2023/01/31 01:17:09;;;;;;;0.10;0.10;;;;;;;;;;1767207;27;20663;-63
2023/01/31 01:18:00;;;;;;;0.22;0.22;;;;;;;;;;1767035;27;20276;-64
2023/01/31 01:18:53;;;;;;;0.10;0.10;;;;;;;;;;1767017;27;20204;-64
2023/01/31 01:19:44;;;;;;;0.00;0.00;;;;;;;;;;1767241;27;20200;-62
2023/01/31 01:20:36;;;;;;;0.10;0.10;;;;;;;;;;1765507;27;20232;-63
2023/01/31 01:21:29;;;;;;;0.00;0.00;;;;;;;;;;1767112;27;20209;-64
2023/01/31 01:22:21;;;;;;;0.00;0.00;;;;;;;;;;1767007;27;20207;-61
2023/01/31 01:23:12;;;;;;;0.10;0.10;;;;;;;;;;1767784;27;20240;-63
2023/01/31 01:24:04;;;;;;;0.10;0.10;;;;;;;;;;1767389;27;20233;-63
2023/01/31 01:24:55;;;;;;;0.10;0.10;;;;;;;;;;1767240;27;20201;-63
2023/01/31 01:25:47;;;;;;;0.25;0.25;;;;;;;;;;1765544;27;20865;-63
2023/01/31 01:26:38;;;;;;;0.00;0.00;;;;;;;;;;1767054;27;20265;-63
2023/01/31 01:27:30;;;;;;;0.10;0.10;;;;;;;;;;1767438;27;20196;-64
2023/01/31 01:28:21;;;;;;;0.10;0.10;;;;;;;;;;1766887;27;20614;-63
2023/01/31 01:29:13;;;;;;;0.00;0.00;;;;;;;;;;1767953;27;20672;-63
2023/01/31 01:30:05;;;;;;;0.10;0.10;;;;;;;;;;1767065;27;20216;-64
2023/01/31 01:30:57;;;;;;;0.10;0.10;;;;;;;;;;1765540;27;20310;-64
2023/01/31 01:31:48;;;;;;;0.10;0.10;;;;;;;;;;1766976;27;20226;-64
2023/01/31 01:32:41;;;;;;;0.10;0.10;;;;;;;;;;1767296;27;20570;-63
2023/01/31 01:33:32;;;;;;;0.08;0.08;;;;;;;;;;1767029;27;20515;-63
2023/01/31 01:34:24;;;;;;;0.10;0.10;;;;;;;;;;1767482;27;20801;-65
2023/01/31 01:35:15;;;;;;;0.10;0.10;;;;;;;;;;1765617;27;20235;-63
2023/01/31 01:36:10;;;;;;;0.30;0.30;;;;;;;;;;1767313;27;20260;-63
2023/01/31 01:37:10;;;;;;;0.17;0.17;;;;;;;;;;1766899;27;20292;-63
2023/01/31 01:38:02;;;;;;;0.30;0.30;;;;;;;;;;1767325;27;20208;-63
2023/01/31 01:38:53;;;;;;;0.20;0.20;;;;;;;;;;1767057;27;20201;-63
2023/01/31 01:39:45;;;;;;;0.10;0.10;;;;;;;;;;1767189;27;20232;-64
2023/01/31 01:40:37;;;;;;;0.10;0.10;;;;;;;;;;1765511;27;20687;-63
2023/01/31 01:41:32;;;;;;;0.15;0.15;;;;;;;;;;1767129;27;20212;-64
2023/01/31 01:42:24;;;;;;;0.20;0.20;;;;;;;;;;1767139;27;20276;-63
2023/01/31 01:43:16;;;;;;;0.10;0.10;;;;;;;;;;1767421;27;20196;-63
2023/01/31 01:44:22;;;;;;;0.10;0.10;;;;;;;;;;1767406;27;20643;-63
2023/01/31 01:45:15;;;;;;;0.13;0.13;;;;;;;;;;1762780;27;20230;-62
2023/01/31 01:46:07;;;;;;;0.20;0.20;;;;;;;;;;1766660;27;20239;-64
2023/01/31 01:46:59;;;;;;;0.20;0.20;;;;;;;;;;1766775;27;20268;-63
2023/01/31 01:47:53;;;;;;;0.10;0.10;;;;;;;;;;1764580;27;20687;-65
2023/01/31 01:48:46;;;;;;;0.10;0.10;;;;;;;;;;1767094;27;20792;-63
2023/01/31 01:49:37;;;;;;;0.03;0.03;;;;;;;;;;1767231;27;20280;-63
2023/01/31 01:50:31;;;;;;;0.00;0.00;;;;;;;;;;1764952;27;20228;-63
2023/01/31 01:51:23;;;;;;;0.05;0.05;;;;;;;;;;1767163;27;20471;-64
2023/01/31 01:52:16;;;;;;;0.10;0.10;;;;;;;;;;1767475;27;20223;-63
2023/01/31 01:53:09;;;;;;;0.13;0.13;;;;;;;;;;1766966;27;20204;-63
2023/01/31 01:54:04;;;;;;;0.13;0.13;;;;;;;;;;1767235;27;20212;-64
2023/01/31 01:54:56;;;;;;;0.10;0.10;;;;;;;;;;1767097;27;20205;-63
2023/01/31 01:55:51;;;;;;;0.20;0.20;;;;;;;;;;1765169;27;20327;-64
2023/01/31 01:56:44;;;;;;;0.10;0.10;;;;;;;;;;1767140;27;20268;-64
2023/01/31 01:57:40;;;;;;;0.10;0.10;;;;;;;;;;1767081;27;20481;-63
2023/01/31 01:58:32;;;;;;;0.20;0.20;;;;;;;;;;1767011;27;20196;-63
2023/01/31 01:59:25;;;;;;;0.10;0.10;;;;;;;;;;1767278;27;20623;-62
2023/01/31 02:00:19;;;;;;;0.10;0.10;;;;;;;;;;1765174;27;20204;-63
2023/01/31 02:01:12;;;;;;;0.20;0.20;;;;;;;;;;1767258;27;20211;-63
2023/01/31 02:02:04;;;;;;;0.10;0.10;;;;;;;;;;1766601;27;20204;-63
2023/01/31 02:02:59;;;;;;;0.00;0.00;;;;;;;;;;1767411;27;20440;-65
2023/01/31 02:03:51;;;;;;;0.10;0.10;;;;;;;;;;1766580;27;20201;-64
2023/01/31 02:04:45;;;;;;;0.00;0.00;;;;;;;;;;1766924;27;20200;-62
2023/01/31 02:05:39;;;;;;;0.10;0.10;;;;;;;;;;1764890;27;20232;-63
2023/01/31 02:06:31;;;;;;;0.10;0.10;;;;;;;;;;1767132;27;20736;-63
2023/01/31 02:07:22;;;;;;;0.00;0.00;;;;;;;;;;1767188;27;20204;-61
2023/01/31 02:08:15;;;;;;;0.10;0.10;;;;;;;;;;1766993;27;20200;-63
2023/01/31 02:09:08;;;;;;;0.10;0.10;;;;;;;;;;1767308;27;20213;-63
2023/01/31 02:10:02;;;;;;;0.13;0.13;;;;;;;;;;1766708;27;20556;-63
2023/01/31 02:10:54;;;;;;;0.20;0.20;;;;;;;;;;1765485;27;20276;-63
2023/01/31 02:11:46;;;;;;;0.10;0.10;;;;;;;;;;1766920;27;20207;-63
2023/01/31 02:12:37;;;;;;;0.10;0.10;;;;;;;;;;1766759;27;20265;-63
2023/01/31 02:13:30;;;;;;;0.00;0.00;;;;;;;;;;1766978;27;20228;-63
2023/01/31 02:14:21;;;;;;;0.30;0.30;;;;;;;;;;1767413;27;20208;-64
2023/01/31 02:15:13;;;;;;;0.10;0.10;;;;;;;;;;1762598;27;20192;-63
2023/01/31 02:16:04;;;;;;;0.10;0.10;;;;;;;;;;1766753;27;20228;-63
2023/01/31 02:16:56;;;;;;;0.20;0.20;;;;;;;;;;1766957;27;20612;-63
2023/01/31 02:17:47;;;;;;;0.00;0.00;;;;;;;;;;1767135;27;20200;-63
2023/01/31 02:18:41;;;;;;;0.20;0.20;;;;;;;;;;1766828;27;20257;-64
2023/01/31 02:19:37;;;;;;;0.13;0.13;;;;;;;;;;1767387;27;20278;-64
2023/01/31 02:20:57;;;;;;;0.20;0.20;;;;;;;;;;1764646;27;21077;-65
2023/01/31 02:22:06;;;;;;;0.20;0.20;;;;;;;;;;1766802;27;20253;-64
2023/01/31 02:23:06;;;;;;;0.10;0.10;;;;;;;;;;1756615;27;20204;-64
2023/01/31 02:24:22;;;;;;;0.20;0.20;;;;;;;;;;1767311;27;20204;-64
2023/01/31 02:25:31;;;;;;;0.20;0.20;;;;;;;;;;1762759;27;20694;-64
2023/01/31 02:26:32;;;;;;;0.10;0.10;;;;;;;;;;1760192;28;20225;-64
2023/01/31 02:27:43;;;;;;;0.20;0.20;;;;;;;;;;1767034;27;20817;-63
2023/01/31 02:28:45;;;;;;;0.20;0.20;;;;;;;;;;1766873;27;20204;-65
2023/01/31 02:29:47;;;;;;;0.38;0.38;;;;;;;;;;1767304;27;20184;-65
2023/01/31 02:30:55;;;;;;;0.20;0.20;;;;;;;;;;1764837;27;20797;-65
2023/01/31 02:31:59;;;;;;;0.10;0.10;;;;;;;;;;1766609;27;20687;-64
2023/01/31 02:33:00;;;;;;;0.10;0.10;;;;;;;;;;1766854;27;20374;-64
2023/01/31 02:33:55;;;;;;;0.10;0.10;;;;;;;;;;1766527;27;20250;-65
2023/01/31 02:34:50;;;;;;;0.10;0.10;;;;;;;;;;1766714;27;20205;-65
2023/01/31 02:35:49;;;;;;;0.20;0.20;;;;;;;;;;1764798;27;20224;-64
2023/01/31 02:36:46;;;;;;;0.10;0.10;;;;;;;;;;1766628;27;20529;-64
2023/01/31 02:37:43;;;;;;;0.20;0.20;;;;;;;;;;1766838;27;20245;-64
2023/01/31 02:38:52;;;;;;;0.15;0.15;;;;;;;;;;1766752;27;20245;-64
2023/01/31 02:39:53;;;;;;;0.10;0.10;;;;;;;;;;1762507;27;20204;-64
2023/01/31 02:40:48;;;;;;;0.13;0.13;;;;;;;;;;1765271;27;20758;-65
2023/01/31 02:41:44;;;;;;;0.15;0.15;;;;;;;;;;1766421;27;20197;-64
2023/01/31 02:42:43;;;;;;;0.17;0.17;;;;;;;;;;1766916;27;20238;-64
2023/01/31 02:44:57;;;;;;;0.10;0.10;;;;;;;;;;1766570;27;20232;-64
2023/01/31 02:44:58;;;;;;;0.10;0.10;;;;;;;;;;1766704;27;20204;-64
2023/01/31 02:45:53;;;;;;;0.10;0.10;;;;;;;;;;1762878;27;20220;-65
2023/01/31 02:46:50;;;;;;;0.38;0.38;;;;;;;;;;1759485;28;20577;-64
2023/01/31 02:47:51;;;;;;;0.22;0.22;;;;;;;;;;1759603;28;20296;-65
2023/01/31 02:48:47;;;;;;;0.10;0.10;;;;;;;;;;1761623;27;20193;-64
2023/01/31 02:49:41;;;;;;;0.20;0.20;;;;;;;;;;1757605;28;20721;-64
2023/01/31 02:50:35;;;;;;;0.20;0.20;;;;;;;;;;1757545;28;20245;-65
2023/01/31 02:51:31;;;;;;;0.20;0.20;;;;;;;;;;1759274;28;20185;-64
2023/01/31 02:52:26;;;;;;;0.15;0.15;;;;;;;;;;1760044;28;20212;-65
2023/01/31 02:53:21;;;;;;;0.10;0.10;;;;;;;;;;1755114;28;20334;-65
2023/01/31 02:54:15;;;;;;;0.20;0.20;;;;;;;;;;1759497;28;20273;-65
2023/01/31 02:56:22;;;;;;;0.10;0.10;;;;;;;;;;1751162;28;20796;-65
2023/01/31 02:57:13;;;;;;;0.20;0.20;;;;;;;;;;1759576;27;20588;-65
2023/01/31 02:58:07;;;;;;;0.10;0.10;;;;;;;;;;1759292;28;20201;-66
2023/01/31 02:59:01;;;;;;;0.10;0.10;;;;;;;;;;1759803;28;20209;-65
2023/01/31 02:59:52;;;;;;;0.20;0.20;;;;;;;;;;1759222;28;20209;-64
2023/01/31 03:00:45;;;;;;;0.10;0.10;;;;;;;;;;1757537;27;20552;-65
2023/01/31 03:01:37;;;;;;;0.30;0.30;;;;;;;;;;1759299;27;20454;-64
2023/01/31 03:02:29;;;;;;;0.00;0.00;;;;;;;;;;1759637;28;20228;-64
2023/01/31 03:03:22;;;;;;;0.00;0.00;;;;;;;;;;1759959;28;20687;-65
2023/01/31 03:04:16;;;;;;;0.10;0.10;;;;;;;;;;1759526;28;20207;-64
2023/01/31 03:05:07;;;;;;;0.20;0.20;;;;;;;;;;1759508;28;20265;-63
2023/01/31 03:06:21;;;;;;;0.28;0.28;;;;;;;;;;1757437;27;20232;-64
2023/01/31 03:07:15;;;;;;;0.20;0.20;;;;;;;;;;1759250;28;20205;-64
2023/01/31 03:08:07;;;;;;;0.30;0.30;;;;;;;;;;1759635;28;20224;-63
2023/01/31 03:09:02;;;;;;;0.20;0.20;;;;;;;;;;1759662;28;20212;-64
2023/01/31 03:09:59;;;;;;;0.10;0.10;;;;;;;;;;1759464;28;20257;-64
2023/01/31 03:10:55;;;;;;;0.20;0.20;;;;;;;;;;1757481;27;20285;-64
2023/01/31 03:11:52;;;;;;;0.20;0.20;;;;;;;;;;1759135;28;20219;-64
2023/01/31 03:12:48;;;;;;;0.10;0.10;;;;;;;;;;1759367;28;20730;-64
2023/01/31 03:13:46;;;;;;;0.20;0.20;;;;;;;;;;1759320;28;20189;-64
2023/01/31 03:14:43;;;;;;;0.10;0.10;;;;;;;;;;1759493;28;20208;-64
2023/01/31 03:18:05;;;;;;;0.25;0.25;;;;;;;;;;1759635;28;20588;-65
2023/01/31 03:19:02;;;;;;;0.10;0.10;;;;;;;;;;1759407;28;20209;-64
2023/01/31 03:19:58;;;;;;;0.20;0.20;;;;;;;;;;1759364;28;20752;-64
2023/01/31 03:20:53;;;;;;;0.10;0.10;;;;;;;;;;1757483;27;20528;-63
2023/01/31 03:21:46;;;;;;;0.10;0.10;;;;;;;;;;1759235;27;20241;-64
2023/01/31 03:22:40;;;;;;;0.15;0.15;;;;;;;;;;1759761;28;20216;-63
2023/01/31 03:23:33;;;;;;;0.20;0.20;;;;;;;;;;1759065;28;20717;-64
2023/01/31 03:24:29;;;;;;;0.20;0.20;;;;;;;;;;1759924;28;20200;-63
2023/01/31 03:25:21;;;;;;;0.10;0.10;;;;;;;;;;1755536;27;20239;-64
2023/01/31 03:26:14;;;;;;;0.10;0.10;;;;;;;;;;1759555;28;20264;-64
2023/01/31 03:27:05;;;;;;;0.13;0.13;;;;;;;;;;1758752;28;20208;-64
2023/01/31 03:27:59;;;;;;;0.20;0.20;;;;;;;;;;1756186;27;20208;-63
2023/01/31 03:28:55;;;;;;;0.20;0.20;;;;;;;;;;1757517;28;20209;-62
2023/01/31 03:29:48;;;;;;;0.20;0.20;;;;;;;;;;1759062;28;20201;-63
2023/01/31 03:30:39;;;;;;;0.10;0.10;;;;;;;;;;1758181;27;20236;-63
2023/01/31 03:31:33;;;;;;;0.10;0.10;;;;;;;;;;1765135;27;20573;-63
2023/01/31 03:32:27;;;;;;;0.13;0.13;;;;;;;;;;1759714;28;20250;-63
2023/01/31 03:33:22;;;;;;;0.10;0.10;;;;;;;;;;1754948;28;20252;-63
2023/01/31 03:34:14;;;;;;;0.20;0.20;;;;;;;;;;1761366;27;20237;-63
2023/01/31 03:35:08;;;;;;;0.00;0.00;;;;;;;;;;1759243;28;20248;-63
2023/01/31 03:36:03;;;;;;;0.10;0.10;;;;;;;;;;1757550;27;20715;-63
2023/01/31 03:36:57;;;;;;;0.20;0.20;;;;;;;;;;1759169;28;20201;-64
2023/01/31 03:37:52;;;;;;;0.20;0.20;;;;;;;;;;1756264;28;20239;-64
2023/01/31 03:38:48;;;;;;;0.30;0.30;;;;;;;;;;1757488;28;20254;-63
2023/01/31 03:39:41;;;;;;;0.20;0.20;;;;;;;;;;1761720;27;20556;-64
2023/01/31 03:40:36;;;;;;;0.10;0.10;;;;;;;;;;1756897;28;20263;-64
2023/01/31 03:41:30;;;;;;;0.10;0.10;;;;;;;;;;1759313;28;20736;-63
2023/01/31 03:42:24;;;;;;;0.20;0.20;;;;;;;;;;1759131;28;20238;-64
2023/01/31 03:43:19;;;;;;;0.10;0.10;;;;;;;;;;1759220;28;20208;-64
2023/01/31 03:44:13;;;;;;;0.10;0.10;;;;;;;;;;1761845;27;20762;-65
2023/01/31 03:45:07;;;;;;;0.13;0.13;;;;;;;;;;1758948;28;20217;-64
2023/01/31 03:46:01;;;;;;;0.05;0.05;;;;;;;;;;1759821;27;20236;-63
2023/01/31 03:46:55;;;;;;;0.25;0.25;;;;;;;;;;1765898;27;20212;-64
2023/01/31 03:47:49;;;;;;;0.20;0.20;;;;;;;;;;1766513;27;20296;-63
2023/01/31 03:48:42;;;;;;;0.10;0.10;;;;;;;;;;1766163;27;20204;-64
2023/01/31 03:49:34;;;;;;;0.22;0.22;;;;;;;;;;1766695;27;20196;-63
2023/01/31 03:50:28;;;;;;;0.20;0.20;;;;;;;;;;1764566;27;20687;-64
2023/01/31 03:51:22;;;;;;;0.10;0.10;;;;;;;;;;1767036;27;20193;-64
2023/01/31 03:52:17;;;;;;;0.20;0.20;;;;;;;;;;1766000;27;20211;-63
2023/01/31 03:53:11;;;;;;;0.20;0.20;;;;;;;;;;1766047;27;20204;-63
2023/01/31 03:54:05;;;;;;;0.20;0.20;;;;;;;;;;1766478;27;20212;-64
2023/01/31 03:55:00;;;;;;;0.10;0.10;;;;;;;;;;1766157;27;20235;-63
2023/01/31 03:55:52;;;;;;;0.20;0.20;;;;;;;;;;1764709;27;20497;-64
2023/01/31 03:56:46;;;;;;;0.10;0.10;;;;;;;;;;1766201;27;20196;-64
2023/01/31 03:57:39;;;;;;;0.13;0.13;;;;;;;;;;1766175;27;20196;-64
2023/01/31 03:58:34;;;;;;;0.10;0.10;;;;;;;;;;1766008;27;20211;-63
2023/01/31 03:59:27;;;;;;;0.20;0.20;;;;;;;;;;1766873;27;20245;-64
2023/01/31 04:00:20;;;;;;;0.20;0.20;;;;;;;;;;1762442;27;20544;-64
2023/01/31 04:01:12;;;;;;;0.20;0.20;;;;;;;;;;1766422;27;20256;-64
2023/01/31 04:02:06;;;;;;;0.10;0.10;;;;;;;;;;1766114;27;20571;-64
2023/01/31 04:03:00;;;;;;;0.20;0.20;;;;;;;;;;1766702;27;20564;-64
2023/01/31 04:03:55;;;;;;;0.20;0.20;;;;;;;;;;1766235;27;20200;-64
2023/01/31 04:04:48;;;;;;;0.30;0.30;;;;;;;;;;1766431;27;20189;-64
2023/01/31 04:05:41;;;;;;;0.03;0.03;;;;;;;;;;1764250;27;20599;-64
2023/01/31 04:06:32;;;;;;;0.05;0.05;;;;;;;;;;1766415;27;20514;-64
2023/01/31 04:07:25;;;;;;;0.10;0.10;;;;;;;;;;1766585;27;20200;-63
2023/01/31 04:08:16;;;;;;;0.10;0.10;;;;;;;;;;1766109;27;20649;-64
2023/01/31 04:09:08;;;;;;;0.05;0.05;;;;;;;;;;1766642;27;20263;-64
2023/01/31 04:09:59;;;;;;;0.10;0.10;;;;;;;;;;1766073;27;20216;-64
2023/01/31 04:10:51;;;;;;;0.10;0.10;;;;;;;;;;1764602;27;20257;-64
2023/01/31 04:11:46;;;;;;;0.10;0.10;;;;;;;;;;1765907;27;20620;-64
2023/01/31 04:12:38;;;;;;;0.10;0.10;;;;;;;;;;1766358;27;20192;-64
2023/01/31 04:13:29;;;;;;;0.10;0.10;;;;;;;;;;1765977;27;20241;-63
2023/01/31 04:14:21;;;;;;;0.30;0.30;;;;;;;;;;1766869;27;20210;-64
2023/01/31 04:15:13;;;;;;;0.28;0.28;;;;;;;;;;1764065;27;20239;-63
2023/01/31 04:16:05;;;;;;;0.20;0.20;;;;;;;;;;1765962;28;20220;-64
2023/01/31 04:16:56;;;;;;;0.20;0.20;;;;;;;;;;1766185;28;20735;-63
2023/01/31 04:17:48;;;;;;;0.10;0.10;;;;;;;;;;1766137;28;20192;-63
2023/01/31 04:18:39;;;;;;;0.10;0.10;;;;;;;;;;1766227;28;20203;-63
2023/01/31 04:19:31;;;;;;;0.00;0.00;;;;;;;;;;1766562;27;20288;-63
2023/01/31 04:20:22;;;;;;;0.00;0.00;;;;;;;;;;1764581;27;20761;-63
2023/01/31 04:21:15;;;;;;;0.05;0.05;;;;;;;;;;1766706;28;20830;-63
2023/01/31 04:22:06;;;;;;;0.10;0.10;;;;;;;;;;1765658;27;20204;-63
2023/01/31 04:22:59;;;;;;;0.10;0.10;;;;;;;;;;1766609;28;20249;-63
2023/01/31 04:23:50;;;;;;;0.17;0.17;;;;;;;;;;1766109;28;20204;-63
2023/01/31 04:24:42;;;;;;;0.00;0.00;;;;;;;;;;1766405;28;20193;-64
2023/01/31 04:25:33;;;;;;;0.13;0.13;;;;;;;;;;1764227;27;20288;-63
2023/01/31 04:26:25;;;;;;;0.30;0.30;;;;;;;;;;1766659;28;20204;-64
2023/01/31 04:27:16;;;;;;;0.03;0.03;;;;;;;;;;1766517;28;20204;-63
2023/01/31 04:28:08;;;;;;;0.10;0.10;;;;;;;;;;1765955;27;20575;-64
2023/01/31 04:28:59;;;;;;;0.00;0.00;;;;;;;;;;1767087;27;20212;-64
2023/01/31 04:29:51;;;;;;;0.10;0.10;;;;;;;;;;1767583;27;20200;-63
2023/01/31 04:30:42;;;;;;;0.00;0.00;;;;;;;;;;1765586;27;20232;-64
2023/01/31 04:31:34;;;;;;;0.20;0.20;;;;;;;;;;1767580;27;20192;-65
2023/01/31 04:32:25;;;;;;;0.03;0.03;;;;;;;;;;1767944;27;20208;-64
2023/01/31 04:33:17;;;;;;;0.15;0.15;;;;;;;;;;1767431;27;20654;-63
2023/01/31 04:34:08;;;;;;;0.10;0.10;;;;;;;;;;1767949;27;20215;-63
2023/01/31 04:35:00;;;;;;;0.20;0.20;;;;;;;;;;1767360;27;20251;-64
2023/01/31 04:35:51;;;;;;;0.00;0.00;;;;;;;;;;1765811;27;20806;-64
2023/01/31 04:36:45;;;;;;;0.20;0.20;;;;;;;;;;1767298;27;20200;-65
2023/01/31 04:37:36;;;;;;;0.20;0.20;;;;;;;;;;1767949;27;20208;-64
2023/01/31 04:38:28;;;;;;;0.10;0.10;;;;;;;;;;1767541;27;20200;-63
2023/01/31 04:39:19;;;;;;;0.20;0.20;;;;;;;;;;1766119;27;20494;-64
2023/01/31 04:40:12;;;;;;;0.10;0.10;;;;;;;;;;1766767;27;20207;-62
2023/01/31 04:41:03;;;;;;;0.10;0.10;;;;;;;;;;1766514;27;20674;-64
2023/01/31 04:41:55;;;;;;;0.00;0.00;;;;;;;;;;1767404;27;20659;-64
2023/01/31 04:42:46;;;;;;;0.17;0.17;;;;;;;;;;1767490;27;20200;-64
2023/01/31 04:43:37;;;;;;;0.13;0.13;;;;;;;;;;1767501;27;20253;-65
2023/01/31 04:44:29;;;;;;;0.10;0.10;;;;;;;;;;1768321;27;20314;-63
2023/01/31 04:45:20;;;;;;;0.10;0.10;;;;;;;;;;1763706;27;20264;-63
2023/01/31 04:46:12;;;;;;;0.10;0.10;;;;;;;;;;1789141;22;20684;-63
2023/01/31 04:47:03;;;;;;;0.22;0.22;;;;;;;;;;1751637;28;20812;-66
2023/01/31 04:47:55;;;;;;;0.10;0.10;;;;;;;;;;1749863;28;20224;-65
2023/01/31 04:48:46;;;;;;;0.10;0.10;;;;;;;;;;1746926;28;20202;-65
2023/01/31 04:49:38;;;;;;;0.10;0.10;;;;;;;;;;1752627;28;20573;-65
2023/01/31 04:50:29;;;;;;;0.10;0.10;;;;;;;;;;1744387;28;20374;-66
2023/01/31 04:51:21;;;;;;;0.10;0.10;;;;;;;;;;1754176;28;20565;-66
2023/01/31 04:52:14;;;;;;;0.10;0.10;;;;;;;;;;1752467;28;20208;-64
2023/01/31 04:53:07;;;;;;;0.10;0.10;;;;;;;;;;1753014;28;20209;-65
2023/01/31 04:53:59;;;;;;;0.10;0.10;;;;;;;;;;1752600;28;20862;-63
2023/01/31 04:54:50;;;;;;;0.10;0.10;;;;;;;;;;1752263;28;20291;-65
2023/01/31 04:55:42;;;;;;;0.00;0.00;;;;;;;;;;1746306;28;20284;-65
2023/01/31 04:56:33;;;;;;;0.20;0.20;;;;;;;;;;1751285;28;20225;-64
2023/01/31 04:57:25;;;;;;;0.10;0.10;;;;;;;;;;1746685;28;20381;-64
2023/01/31 04:58:17;;;;;;;0.10;0.10;;;;;;;;;;1745759;28;20213;-64
2023/01/31 04:59:09;;;;;;;0.10;0.10;;;;;;;;;;1748278;28;20198;-64
2023/01/31 05:00:00;;;;;;;0.20;0.20;;;;;;;;;;1745870;28;20263;-64
2023/01/31 05:00:53;;;;;;;0.17;0.17;;;;;;;;;;1744400;28;20705;-64
2023/01/31 05:01:44;;;;;;;0.10;0.10;;;;;;;;;;1745464;28;20268;-64
2023/01/31 05:02:36;;;;;;;0.28;0.28;;;;;;;;;;1746594;28;20198;-65
2023/01/31 05:03:27;;;;;;;0.10;0.10;;;;;;;;;;1744951;28;20690;-64
2023/01/31 05:04:21;;;;;;;0.00;0.00;;;;;;;;;;1746583;28;20206;-65
2023/01/31 05:05:12;;;;;;;0.20;0.20;;;;;;;;;;1744657;28;20881;-65
2023/01/31 05:06:04;;;;;;;0.10;0.10;;;;;;;;;;1745834;28;20578;-64
2023/01/31 05:06:55;;;;;;;0.20;0.20;;;;;;;;;;1746015;28;20661;-64
2023/01/31 05:07:48;;;;;;;0.10;0.10;;;;;;;;;;1746512;28;20621;-64
2023/01/31 05:08:39;;;;;;;0.10;0.10;;;;;;;;;;1745713;28;20206;-64
2023/01/31 05:09:31;;;;;;;0.20;0.20;;;;;;;;;;1746713;28;20685;-64
2023/01/31 05:10:22;;;;;;;0.10;0.10;;;;;;;;;;1742761;28;20206;-65
2023/01/31 05:11:14;;;;;;;0.10;0.10;;;;;;;;;;1746369;28;20411;-66
2023/01/31 05:12:06;;;;;;;0.20;0.20;;;;;;;;;;1745445;28;20214;-65
2023/01/31 05:12:58;;;;;;;0.10;0.10;;;;;;;;;;1746591;28;20494;-64
2023/01/31 05:13:49;;;;;;;0.20;0.20;;;;;;;;;;1745592;28;20201;-64
2023/01/31 05:14:41;;;;;;;0.20;0.20;;;;;;;;;;1746710;28;20198;-64
2023/01/31 05:15:32;;;;;;;0.20;0.20;;;;;;;;;;1743520;28;20293;-64
2023/01/31 05:16:24;;;;;;;0.10;0.10;;;;;;;;;;1746552;28;20218;-64
2023/01/31 05:17:15;;;;;;;0.10;0.10;;;;;;;;;;1745838;28;20287;-64
2023/01/31 05:18:07;;;;;;;0.10;0.10;;;;;;;;;;1747672;28;20205;-63
2023/01/31 05:18:58;;;;;;;0.22;0.22;;;;;;;;;;1746306;28;20210;-64
2023/01/31 05:19:50;;;;;;;0.05;0.05;;;;;;;;;;1745444;28;20247;-64
2023/01/31 05:20:42;;;;;;;0.10;0.10;;;;;;;;;;1745500;28;20290;-64
2023/01/31 05:21:53;;;;;;;0.17;0.17;;;;;;;;;;1751266;28;20430;-64
2023/01/31 05:22:48;;;;;;;0.20;0.20;;;;;;;;;;1746637;28;20191;-64
2023/01/31 05:23:40;;;;;;;0.10;0.10;;;;;;;;;;1745705;28;20202;-64